sensor_id;sensor_type;location;lat;lon;timestamp;P1;durP1;ratioP1;P2;durP2;ratioP2
80251;SDS011;69562;37.974;23.708;2023-04-25T00:03:40;7.13;;;4.65;;
80251;SDS011;69562;37.974;23.708;2023-04-25T00:06:06;6.47;;;4.60;;
80251;SDS011;69562;37.974;23.708;2023-04-25T00:08:32;7.22;;;4.50;;
80251;SDS011;69562;37.974;23.708;2023-04-25T00:10:58;5.03;;;4.43;;
80251;SDS011;69562;37.974;23.708;2023-04-25T00:13:24;5.82;;;4.38;;
80251;SDS011;69562;37.974;23.708;2023-04-25T00:15:51;8.05;;;4.57;;
80251;SDS011;69562;37.974;23.708;2023-04-25T00:18:18;5.75;;;4.50;;
80251;SDS011;69562;37.974;23.708;2023-04-25T00:20:45;6.93;;;4.78;;
80251;SDS011;69562;37.974;23.708;2023-04-25T00:25:45;6.80;;;4.40;;
80251;SDS011;69562;37.974;23.708;2023-04-25T00:28:15;5.57;;;4.70;;
80251;SDS011;69562;37.974;23.708;2023-04-25T00:30:40;6.05;;;4.60;;
80251;SDS011;69562;37.974;23.708;2023-04-25T00:33:07;6.05;;;4.78;;
80251;SDS011;69562;37.974;23.708;2023-04-25T00:35:33;5.97;;;4.38;;
80251;SDS011;69562;37.974;23.708;2023-04-25T00:37:59;6.45;;;4.70;;
80251;SDS011;69562;37.974;23.708;2023-04-25T00:40:25;5.90;;;4.35;;
80251;SDS011;69562;37.974;23.708;2023-04-25T00:42:52;6.03;;;4.68;;
80251;SDS011;69562;37.974;23.708;2023-04-25T00:45:18;8.35;;;4.65;;
80251;SDS011;69562;37.974;23.708;2023-04-25T00:47:44;6.03;;;4.60;;
80251;SDS011;69562;37.974;23.708;2023-04-25T00:50:10;6.72;;;4.55;;
80251;SDS011;69562;37.974;23.708;2023-04-25T00:52:41;6.55;;;4.53;;
80251;SDS011;69562;37.974;23.708;2023-04-25T00:55:09;5.32;;;3.90;;
80251;SDS011;69562;37.974;23.708;2023-04-25T00:57:37;5.75;;;4.65;;
80251;SDS011;69562;37.974;23.708;2023-04-25T01:02:31;4.95;;;4.30;;
80251;SDS011;69562;37.974;23.708;2023-04-25T01:04:57;6.10;;;4.38;;
80251;SDS011;69562;37.974;23.708;2023-04-25T01:07:23;6.35;;;4.47;;
80251;SDS011;69562;37.974;23.708;2023-04-25T01:09:51;6.75;;;4.50;;
80251;SDS011;69562;37.974;23.708;2023-04-25T01:12:17;4.97;;;4.10;;
80251;SDS011;69562;37.974;23.708;2023-04-25T01:14:43;5.22;;;4.10;;
80251;SDS011;69562;37.974;23.708;2023-04-25T01:17:09;4.80;;;3.75;;
80251;SDS011;69562;37.974;23.708;2023-04-25T01:19:35;5.13;;;4.20;;
80251;SDS011;69562;37.974;23.708;2023-04-25T01:22:01;5.07;;;4.20;;
80251;SDS011;69562;37.974;23.708;2023-04-25T01:24:28;7.03;;;4.53;;
80251;SDS011;69562;37.974;23.708;2023-04-25T01:26:54;6.38;;;4.10;;
80251;SDS011;69562;37.974;23.708;2023-04-25T01:29:21;5.53;;;4.00;;
80251;SDS011;69562;37.974;23.708;2023-04-25T01:31:48;6.43;;;4.32;;
80251;SDS011;69562;37.974;23.708;2023-04-25T01:34:14;6.38;;;4.25;;
80251;SDS011;69562;37.974;23.708;2023-04-25T01:36:40;8.90;;;4.60;;
80251;SDS011;69562;37.974;23.708;2023-04-25T01:39:06;5.80;;;4.18;;
80251;SDS011;69562;37.974;23.708;2023-04-25T01:41:32;5.57;;;4.25;;
80251;SDS011;69562;37.974;23.708;2023-04-25T01:44:02;7.50;;;4.10;;
80251;SDS011;69562;37.974;23.708;2023-04-25T01:46:28;6.70;;;4.32;;
80251;SDS011;69562;37.974;23.708;2023-04-25T01:48:54;4.22;;;3.78;;
80251;SDS011;69562;37.974;23.708;2023-04-25T01:51:20;5.75;;;4.00;;
80251;SDS011;69562;37.974;23.708;2023-04-25T01:53:46;6.32;;;4.28;;
80251;SDS011;69562;37.974;23.708;2023-04-25T01:56:12;4.47;;;3.97;;
80251;SDS011;69562;37.974;23.708;2023-04-25T01:58:37;6.70;;;4.17;;
80251;SDS011;69562;37.974;23.708;2023-04-25T02:01:03;8.90;;;4.37;;
80251;SDS011;69562;37.974;23.708;2023-04-25T02:03:30;6.10;;;4.50;;
80251;SDS011;69562;37.974;23.708;2023-04-25T02:05:57;5.72;;;4.10;;
80251;SDS011;69562;37.974;23.708;2023-04-25T02:08:22;7.90;;;3.87;;
80251;SDS011;69562;37.974;23.708;2023-04-25T02:10:48;5.67;;;4.10;;
80251;SDS011;69562;37.974;23.708;2023-04-25T02:13:14;7.55;;;4.10;;
80251;SDS011;69562;37.974;23.708;2023-04-25T02:15:40;4.63;;;3.87;;
80251;SDS011;69562;37.974;23.708;2023-04-25T02:18:06;5.30;;;4.25;;
80251;SDS011;69562;37.974;23.708;2023-04-25T02:20:32;5.27;;;3.97;;
80251;SDS011;69562;37.974;23.708;2023-04-25T02:22:58;4.80;;;3.70;;
80251;SDS011;69562;37.974;23.708;2023-04-25T02:25:24;6.18;;;3.85;;
80251;SDS011;69562;37.974;23.708;2023-04-25T02:27:49;4.40;;;3.53;;
80251;SDS011;69562;37.974;23.708;2023-04-25T02:30:16;8.45;;;4.47;;
80251;SDS011;69562;37.974;23.708;2023-04-25T02:32:42;5.63;;;4.10;;
80251;SDS011;69562;37.974;23.708;2023-04-25T02:35:08;4.55;;;3.80;;
80251;SDS011;69562;37.974;23.708;2023-04-25T02:37:35;6.78;;;3.90;;
80251;SDS011;69562;37.974;23.708;2023-04-25T02:40:02;6.45;;;4.20;;
80251;SDS011;69562;37.974;23.708;2023-04-25T02:42:29;6.18;;;4.20;;
80251;SDS011;69562;37.974;23.708;2023-04-25T02:44:55;5.22;;;4.05;;
80251;SDS011;69562;37.974;23.708;2023-04-25T02:47:21;5.80;;;4.10;;
80251;SDS011;69562;37.974;23.708;2023-04-25T02:49:46;6.33;;;4.33;;
80251;SDS011;69562;37.974;23.708;2023-04-25T02:52:12;6.77;;;4.10;;
80251;SDS011;69562;37.974;23.708;2023-04-25T02:54:39;8.98;;;4.38;;
80251;SDS011;69562;37.974;23.708;2023-04-25T02:57:05;6.82;;;3.80;;
80251;SDS011;69562;37.974;23.708;2023-04-25T02:59:31;8.07;;;4.60;;
80251;SDS011;69562;37.974;23.708;2023-04-25T03:01:57;5.65;;;4.03;;
80251;SDS011;69562;37.974;23.708;2023-04-25T03:04:23;7.32;;;4.40;;
80251;SDS011;69562;37.974;23.708;2023-04-25T03:06:52;7.13;;;4.00;;
80251;SDS011;69562;37.974;23.708;2023-04-25T03:09:18;7.90;;;4.35;;
80251;SDS011;69562;37.974;23.708;2023-04-25T03:11:44;9.30;;;4.50;;
80251;SDS011;69562;37.974;23.708;2023-04-25T03:14:11;7.95;;;4.30;;
80251;SDS011;69562;37.974;23.708;2023-04-25T03:16:37;6.85;;;4.20;;
80251;SDS011;69562;37.974;23.708;2023-04-25T03:19:02;7.93;;;4.40;;
80251;SDS011;69562;37.974;23.708;2023-04-25T03:21:29;6.50;;;4.55;;
80251;SDS011;69562;37.974;23.708;2023-04-25T03:23:57;8.60;;;4.22;;
80251;SDS011;69562;37.974;23.708;2023-04-25T03:28:49;6.82;;;4.15;;
80251;SDS011;69562;37.974;23.708;2023-04-25T03:31:15;5.32;;;4.18;;
80251;SDS011;69562;37.974;23.708;2023-04-25T03:33:40;6.43;;;4.30;;
80251;SDS011;69562;37.974;23.708;2023-04-25T03:36:06;7.47;;;4.10;;
80251;SDS011;69562;37.974;23.708;2023-04-25T03:38:33;6.50;;;4.07;;
80251;SDS011;69562;37.974;23.708;2023-04-25T03:40:58;5.87;;;4.10;;
80251;SDS011;69562;37.974;23.708;2023-04-25T03:43:25;7.90;;;4.22;;
80251;SDS011;69562;37.974;23.708;2023-04-25T03:45:51;6.93;;;4.20;;
80251;SDS011;69562;37.974;23.708;2023-04-25T03:48:17;8.70;;;4.35;;
80251;SDS011;69562;37.974;23.708;2023-04-25T03:50:43;8.40;;;4.47;;
80251;SDS011;69562;37.974;23.708;2023-04-25T03:53:08;6.27;;;4.30;;
80251;SDS011;69562;37.974;23.708;2023-04-25T03:55:34;9.32;;;4.97;;
80251;SDS011;69562;37.974;23.708;2023-04-25T03:58:00;8.27;;;4.37;;
80251;SDS011;69562;37.974;23.708;2023-04-25T04:00:25;6.93;;;4.37;;
80251;SDS011;69562;37.974;23.708;2023-04-25T04:02:51;7.63;;;4.40;;
80251;SDS011;69562;37.974;23.708;2023-04-25T04:05:17;9.43;;;4.53;;
80251;SDS011;69562;37.974;23.708;2023-04-25T04:07:43;7.93;;;4.30;;
80251;SDS011;69562;37.974;23.708;2023-04-25T04:10:09;6.93;;;4.37;;
80251;SDS011;69562;37.974;23.708;2023-04-25T04:15:01;15.80;;;4.85;;
80251;SDS011;69562;37.974;23.708;2023-04-25T04:17:31;11.55;;;4.80;;
80251;SDS011;69562;37.974;23.708;2023-04-25T04:19:57;24.70;;;4.85;;
80251;SDS011;69562;37.974;23.708;2023-04-25T04:22:23;21.30;;;5.22;;
80251;SDS011;69562;37.974;23.708;2023-04-25T04:24:49;14.82;;;5.00;;
80251;SDS011;69562;37.974;23.708;2023-04-25T04:27:18;21.48;;;4.82;;
80251;SDS011;69562;37.974;23.708;2023-04-25T04:29:44;17.73;;;5.00;;
80251;SDS011;69562;37.974;23.708;2023-04-25T04:32:11;8.43;;;4.57;;
80251;SDS011;69562;37.974;23.708;2023-04-25T04:34:38;13.18;;;4.53;;
80251;SDS011;69562;37.974;23.708;2023-04-25T04:37:04;11.65;;;4.30;;
80251;SDS011;69562;37.974;23.708;2023-04-25T04:39:32;14.75;;;4.63;;
80251;SDS011;69562;37.974;23.708;2023-04-25T04:46:50;11.57;;;4.50;;
80251;SDS011;69562;37.974;23.708;2023-04-25T04:49:16;9.13;;;4.13;;
80251;SDS011;69562;37.974;23.708;2023-04-25T04:54:09;7.95;;;4.13;;
80251;SDS011;69562;37.974;23.708;2023-04-25T04:56:35;8.05;;;4.03;;
80251;SDS011;69562;37.974;23.708;2023-04-25T04:59:01;9.73;;;4.18;;
80251;SDS011;69562;37.974;23.708;2023-04-25T05:01:27;9.77;;;4.60;;
80251;SDS011;69562;37.974;23.708;2023-04-25T05:03:54;8.88;;;4.30;;
80251;SDS011;69562;37.974;23.708;2023-04-25T05:06:25;8.20;;;4.30;;
80251;SDS011;69562;37.974;23.708;2023-04-25T05:11:17;7.32;;;4.80;;
80251;SDS011;69562;37.974;23.708;2023-04-25T05:13:43;10.68;;;4.95;;
80251;SDS011;69562;37.974;23.708;2023-04-25T05:16:10;11.00;;;5.60;;
80251;SDS011;69562;37.974;23.708;2023-04-25T05:18:36;6.43;;;4.47;;
80251;SDS011;69562;37.974;23.708;2023-04-25T05:21:02;6.03;;;4.30;;
80251;SDS011;69562;37.974;23.708;2023-04-25T05:23:28;6.43;;;4.40;;
80251;SDS011;69562;37.974;23.708;2023-04-25T05:25:55;6.55;;;4.38;;
80251;SDS011;69562;37.974;23.708;2023-04-25T05:28:21;7.95;;;4.53;;
80251;SDS011;69562;37.974;23.708;2023-04-25T05:30:47;6.30;;;4.82;;
80251;SDS011;69562;37.974;23.708;2023-04-25T05:33:12;7.38;;;4.30;;
80251;SDS011;69562;37.974;23.708;2023-04-25T05:35:38;7.25;;;4.18;;
80251;SDS011;69562;37.974;23.708;2023-04-25T05:38:04;5.72;;;3.95;;
80251;SDS011;69562;37.974;23.708;2023-04-25T05:40:30;6.17;;;4.13;;
80251;SDS011;69562;37.974;23.708;2023-04-25T05:42:55;6.57;;;3.90;;
80251;SDS011;69562;37.974;23.708;2023-04-25T05:45:21;6.00;;;4.03;;
80251;SDS011;69562;37.974;23.708;2023-04-25T05:47:47;8.32;;;3.97;;
80251;SDS011;69562;37.974;23.708;2023-04-25T05:50:12;4.97;;;3.60;;
80251;SDS011;69562;37.974;23.708;2023-04-25T05:52:38;6.25;;;4.30;;
80251;SDS011;69562;37.974;23.708;2023-04-25T05:55:04;5.60;;;3.78;;
80251;SDS011;69562;37.974;23.708;2023-04-25T05:57:30;5.85;;;3.47;;
80251;SDS011;69562;37.974;23.708;2023-04-25T05:59:56;5.30;;;3.33;;
80251;SDS011;69562;37.974;23.708;2023-04-25T06:02:22;4.20;;;3.00;;
80251;SDS011;69562;37.974;23.708;2023-04-25T06:04:49;5.10;;;3.28;;
80251;SDS011;69562;37.974;23.708;2023-04-25T06:07:15;3.08;;;2.83;;
80251;SDS011;69562;37.974;23.708;2023-04-25T06:09:43;6.03;;;2.70;;
80251;SDS011;69562;37.974;23.708;2023-04-25T06:17:00;4.00;;;3.00;;
80251;SDS011;69562;37.974;23.708;2023-04-25T06:19:34;3.38;;;2.45;;
80251;SDS011;69562;37.974;23.708;2023-04-25T06:22:01;4.00;;;2.60;;
80251;SDS011;69562;37.974;23.708;2023-04-25T06:24:27;3.58;;;2.45;;
80251;SDS011;69562;37.974;23.708;2023-04-25T06:26:53;3.90;;;2.63;;
80251;SDS011;69562;37.974;23.708;2023-04-25T06:29:19;4.00;;;2.53;;
80251;SDS011;69562;37.974;23.708;2023-04-25T06:31:45;3.25;;;2.40;;
80251;SDS011;69562;37.974;23.708;2023-04-25T06:34:11;2.70;;;2.27;;
80251;SDS011;69562;37.974;23.708;2023-04-25T06:36:36;3.30;;;2.30;;
80251;SDS011;69562;37.974;23.708;2023-04-25T06:39:02;3.43;;;2.13;;
80251;SDS011;69562;37.974;23.708;2023-04-25T06:41:28;3.00;;;2.30;;
80251;SDS011;69562;37.974;23.708;2023-04-25T06:43:54;2.33;;;2.13;;
80251;SDS011;69562;37.974;23.708;2023-04-25T06:46:19;2.50;;;2.30;;
80251;SDS011;69562;37.974;23.708;2023-04-25T06:48:45;3.25;;;2.10;;
80251;SDS011;69562;37.974;23.708;2023-04-25T06:51:11;3.58;;;2.30;;
80251;SDS011;69562;37.974;23.708;2023-04-25T06:53:38;2.83;;;2.10;;
80251;SDS011;69562;37.974;23.708;2023-04-25T06:56:04;2.08;;;1.88;;
80251;SDS011;69562;37.974;23.708;2023-04-25T06:58:30;4.25;;;2.33;;
80251;SDS011;69562;37.974;23.708;2023-04-25T07:00:56;7.60;;;2.40;;
80251;SDS011;69562;37.974;23.708;2023-04-25T07:03:22;3.15;;;2.33;;
80251;SDS011;69562;37.974;23.708;2023-04-25T07:05:49;4.25;;;2.42;;
80251;SDS011;69562;37.974;23.708;2023-04-25T07:08:15;7.05;;;2.63;;
80251;SDS011;69562;37.974;23.708;2023-04-25T07:10:40;7.15;;;2.70;;
80251;SDS011;69562;37.974;23.708;2023-04-25T07:13:06;4.50;;;2.80;;
80251;SDS011;69562;37.974;23.708;2023-04-25T07:15:32;3.72;;;2.75;;
80251;SDS011;69562;37.974;23.708;2023-04-25T07:17:58;4.28;;;2.60;;
80251;SDS011;69562;37.974;23.708;2023-04-25T07:20:24;5.07;;;2.75;;
80251;SDS011;69562;37.974;23.708;2023-04-25T07:22:50;8.38;;;3.20;;
80251;SDS011;69562;37.974;23.708;2023-04-25T07:25:16;3.42;;;2.40;;
80251;SDS011;69562;37.974;23.708;2023-04-25T07:27:42;4.43;;;2.75;;
80251;SDS011;69562;37.974;23.708;2023-04-25T07:30:08;7.65;;;2.40;;
80251;SDS011;69562;37.974;23.708;2023-04-25T07:32:34;2.97;;;2.30;;
80251;SDS011;69562;37.974;23.708;2023-04-25T07:35:00;2.35;;;2.15;;
80251;SDS011;69562;37.974;23.708;2023-04-25T07:37:26;3.67;;;2.33;;
80251;SDS011;69562;37.974;23.708;2023-04-25T07:39:52;4.77;;;2.40;;
80251;SDS011;69562;37.974;23.708;2023-04-25T07:42:18;4.40;;;2.33;;
80251;SDS011;69562;37.974;23.708;2023-04-25T07:44:44;2.78;;;2.47;;
80251;SDS011;69562;37.974;23.708;2023-04-25T07:47:10;3.08;;;2.28;;
80251;SDS011;69562;37.974;23.708;2023-04-25T07:49:36;3.13;;;2.35;;
80251;SDS011;69562;37.974;23.708;2023-04-25T07:52:03;2.95;;;2.63;;
80251;SDS011;69562;37.974;23.708;2023-04-25T07:54:30;3.47;;;2.22;;
80251;SDS011;69562;37.974;23.708;2023-04-25T07:56:56;3.00;;;2.20;;
80251;SDS011;69562;37.974;23.708;2023-04-25T07:59:21;2.73;;;2.20;;
80251;SDS011;69562;37.974;23.708;2023-04-25T08:01:47;2.50;;;2.22;;
80251;SDS011;69562;37.974;23.708;2023-04-25T08:04:14;4.07;;;1.95;;
80251;SDS011;69562;37.974;23.708;2023-04-25T08:06:40;3.78;;;2.30;;
80251;SDS011;69562;37.974;23.708;2023-04-25T08:09:06;4.95;;;2.65;;
80251;SDS011;69562;37.974;23.708;2023-04-25T08:11:33;3.22;;;2.25;;
80251;SDS011;69562;37.974;23.708;2023-04-25T08:13:59;2.55;;;2.25;;
80251;SDS011;69562;37.974;23.708;2023-04-25T08:16:25;2.07;;;1.90;;
80251;SDS011;69562;37.974;23.708;2023-04-25T08:18:51;4.43;;;2.20;;
80251;SDS011;69562;37.974;23.708;2023-04-25T08:21:16;4.40;;;2.17;;
80251;SDS011;69562;37.974;23.708;2023-04-25T08:23:42;2.77;;;2.33;;
80251;SDS011;69562;37.974;23.708;2023-04-25T08:26:08;4.87;;;2.30;;
80251;SDS011;69562;37.974;23.708;2023-04-25T08:28:34;6.73;;;2.50;;
80251;SDS011;69562;37.974;23.708;2023-04-25T08:31:00;2.83;;;2.50;;
80251;SDS011;69562;37.974;23.708;2023-04-25T08:33:26;3.00;;;2.23;;
80251;SDS011;69562;37.974;23.708;2023-04-25T08:35:52;3.72;;;2.25;;
80251;SDS011;69562;37.974;23.708;2023-04-25T08:38:17;2.58;;;2.05;;
80251;SDS011;69562;37.974;23.708;2023-04-25T08:40:44;3.17;;;2.20;;
80251;SDS011;69562;37.974;23.708;2023-04-25T08:43:14;2.33;;;1.88;;
80251;SDS011;69562;37.974;23.708;2023-04-25T08:45:41;3.17;;;2.40;;
80251;SDS011;69562;37.974;23.708;2023-04-25T08:48:07;3.60;;;2.00;;
80251;SDS011;69562;37.974;23.708;2023-04-25T08:50:40;3.28;;;1.85;;
80251;SDS011;69562;37.974;23.708;2023-04-25T08:53:16;3.17;;;2.10;;
80251;SDS011;69562;37.974;23.708;2023-04-25T08:55:46;2.78;;;2.30;;
80251;SDS011;69562;37.974;23.708;2023-04-25T08:58:14;2.80;;;2.05;;
80251;SDS011;69562;37.974;23.708;2023-04-25T09:00:41;4.25;;;2.00;;
80251;SDS011;69562;37.974;23.708;2023-04-25T09:03:07;2.10;;;1.90;;
80251;SDS011;69562;37.974;23.708;2023-04-25T09:05:33;2.13;;;1.92;;
80251;SDS011;69562;37.974;23.708;2023-04-25T09:08:00;2.30;;;1.80;;
80251;SDS011;69562;37.974;23.708;2023-04-25T09:15:31;1.90;;;1.70;;
80251;SDS011;69562;37.974;23.708;2023-04-25T09:20:24;3.55;;;1.95;;
80251;SDS011;69562;37.974;23.708;2023-04-25T09:23:00;2.50;;;2.20;;
80251;SDS011;69562;37.974;23.708;2023-04-25T09:25:27;2.00;;;1.90;;
80251;SDS011;69562;37.974;23.708;2023-04-25T09:28:04;2.72;;;2.05;;
80251;SDS011;69562;37.974;23.708;2023-04-25T09:30:35;3.45;;;2.08;;
80251;SDS011;69562;37.974;23.708;2023-04-25T09:33:08;2.83;;;2.20;;
80251;SDS011;69562;37.974;23.708;2023-04-25T09:35:48;2.30;;;2.10;;
80251;SDS011;69562;37.974;23.708;2023-04-25T09:38:20;3.50;;;2.05;;
80251;SDS011;69562;37.974;23.708;2023-04-25T09:40:47;3.42;;;2.20;;
80251;SDS011;69562;37.974;23.708;2023-04-25T09:45:49;3.35;;;2.60;;
80251;SDS011;69562;37.974;23.708;2023-04-25T09:48:20;3.70;;;2.45;;
80251;SDS011;69562;37.974;23.708;2023-04-25T09:51:06;4.00;;;2.53;;
80251;SDS011;69562;37.974;23.708;2023-04-25T09:56:07;3.50;;;1.98;;
80251;SDS011;69562;37.974;23.708;2023-04-25T09:58:34;3.22;;;2.40;;
80251;SDS011;69562;37.974;23.708;2023-04-25T10:01:02;3.17;;;2.13;;
80251;SDS011;69562;37.974;23.708;2023-04-25T10:03:30;2.40;;;2.20;;
80251;SDS011;69562;37.974;23.708;2023-04-25T10:05:58;5.30;;;2.30;;
80251;SDS011;69562;37.974;23.708;2023-04-25T10:08:31;2.72;;;2.22;;
80251;SDS011;69562;37.974;23.708;2023-04-25T10:10:59;4.15;;;2.40;;
80251;SDS011;69562;37.974;23.708;2023-04-25T10:13:29;3.90;;;2.30;;
80251;SDS011;69562;37.974;23.708;2023-04-25T10:15:59;2.95;;;2.38;;
80251;SDS011;69562;37.974;23.708;2023-04-25T10:18:27;4.75;;;2.30;;
80251;SDS011;69562;37.974;23.708;2023-04-25T10:20:54;2.65;;;2.30;;
80251;SDS011;69562;37.974;23.708;2023-04-25T10:23:25;4.13;;;2.20;;
80251;SDS011;69562;37.974;23.708;2023-04-25T10:25:52;2.30;;;2.08;;
80251;SDS011;69562;37.974;23.708;2023-04-25T10:28:19;2.33;;;2.13;;
80251;SDS011;69562;37.974;23.708;2023-04-25T10:31:04;3.00;;;2.28;;
80251;SDS011;69562;37.974;23.708;2023-04-25T10:33:33;3.03;;;2.38;;
80251;SDS011;69562;37.974;23.708;2023-04-25T10:36:08;2.75;;;2.20;;
80251;SDS011;69562;37.974;23.708;2023-04-25T10:38:35;3.83;;;2.30;;
80251;SDS011;69562;37.974;23.708;2023-04-25T10:41:02;5.38;;;2.45;;
80251;SDS011;69562;37.974;23.708;2023-04-25T10:46:19;4.00;;;2.78;;
80251;SDS011;69562;37.974;23.708;2023-04-25T10:48:48;4.93;;;2.50;;
80251;SDS011;69562;37.974;23.708;2023-04-25T10:56:21;4.20;;;2.50;;
80251;SDS011;69562;37.974;23.708;2023-04-25T10:58:48;3.22;;;2.30;;
80251;SDS011;69562;37.974;23.708;2023-04-25T11:01:15;3.50;;;2.30;;
80251;SDS011;69562;37.974;23.708;2023-04-25T11:03:56;3.17;;;2.22;;
80251;SDS011;69562;37.974;23.708;2023-04-25T11:08:56;2.28;;;2.00;;
80251;SDS011;69562;37.974;23.708;2023-04-25T11:11:25;3.50;;;2.10;;
80251;SDS011;69562;37.974;23.708;2023-04-25T11:13:51;3.03;;;2.38;;
80251;SDS011;69562;37.974;23.708;2023-04-25T11:16:17;2.97;;;2.20;;
80251;SDS011;69562;37.974;23.708;2023-04-25T11:18:43;2.78;;;2.10;;
80251;SDS011;69562;37.974;23.708;2023-04-25T11:21:10;2.65;;;2.10;;
80251;SDS011;69562;37.974;23.708;2023-04-25T11:23:36;3.05;;;2.08;;
80251;SDS011;69562;37.974;23.708;2023-04-25T11:26:05;2.78;;;2.17;;
80251;SDS011;69562;37.974;23.708;2023-04-25T11:28:31;4.97;;;2.08;;
80251;SDS011;69562;37.974;23.708;2023-04-25T11:30:56;2.20;;;2.00;;
80251;SDS011;69562;37.974;23.708;2023-04-25T11:33:23;3.35;;;1.90;;
80251;SDS011;69562;37.974;23.708;2023-04-25T11:35:50;2.17;;;1.98;;
80251;SDS011;69562;37.974;23.708;2023-04-25T11:38:18;3.72;;;2.10;;
80251;SDS011;69562;37.974;23.708;2023-04-25T11:40:44;3.25;;;2.30;;
80251;SDS011;69562;37.974;23.708;2023-04-25T11:43:27;3.38;;;2.28;;
80251;SDS011;69562;37.974;23.708;2023-04-25T11:45:53;3.25;;;2.10;;
80251;SDS011;69562;37.974;23.708;2023-04-25T11:48:19;2.53;;;2.00;;
80251;SDS011;69562;37.974;23.708;2023-04-25T11:50:45;2.42;;;2.20;;
80251;SDS011;69562;37.974;23.708;2023-04-25T11:53:11;4.30;;;2.10;;
80251;SDS011;69562;37.974;23.708;2023-04-25T11:55:37;2.35;;;2.05;;
80251;SDS011;69562;37.974;23.708;2023-04-25T11:58:03;2.13;;;1.98;;
80251;SDS011;69562;37.974;23.708;2023-04-25T12:00:29;3.83;;;2.25;;
80251;SDS011;69562;37.974;23.708;2023-04-25T12:02:56;1.98;;;1.83;;
80251;SDS011;69562;37.974;23.708;2023-04-25T12:05:24;2.30;;;2.10;;
80251;SDS011;69562;37.974;23.708;2023-04-25T12:07:51;2.92;;;1.98;;
80251;SDS011;69562;37.974;23.708;2023-04-25T12:10:17;2.78;;;1.70;;
80251;SDS011;69562;37.974;23.708;2023-04-25T12:15:11;2.80;;;2.15;;
80251;SDS011;69562;37.974;23.708;2023-04-25T12:17:50;4.00;;;2.17;;
80251;SDS011;69562;37.974;23.708;2023-04-25T12:20:18;4.28;;;1.77;;
80251;SDS011;69562;37.974;23.708;2023-04-25T12:22:46;2.45;;;2.22;;
80251;SDS011;69562;37.974;23.708;2023-04-25T12:31:01;3.70;;;2.35;;
80251;SDS011;69562;37.974;23.708;2023-04-25T12:33:29;2.50;;;2.30;;
80251;SDS011;69562;37.974;23.708;2023-04-25T12:35:59;3.63;;;2.40;;
80251;SDS011;69562;37.974;23.708;2023-04-25T12:38:29;4.22;;;2.38;;
80251;SDS011;69562;37.974;23.708;2023-04-25T12:41:00;3.38;;;2.50;;
80251;SDS011;69562;37.974;23.708;2023-04-25T12:43:26;3.40;;;2.20;;
80251;SDS011;69562;37.974;23.708;2023-04-25T12:45:53;3.88;;;2.10;;
80251;SDS011;69562;37.974;23.708;2023-04-25T12:48:19;2.50;;;2.10;;
80251;SDS011;69562;37.974;23.708;2023-04-25T12:50:46;3.08;;;2.20;;
80251;SDS011;69562;37.974;23.708;2023-04-25T12:53:18;2.30;;;2.03;;
80251;SDS011;69562;37.974;23.708;2023-04-25T12:55:45;3.10;;;2.40;;
80251;SDS011;69562;37.974;23.708;2023-04-25T12:58:12;2.38;;;2.15;;
80251;SDS011;69562;37.974;23.708;2023-04-25T13:00:42;2.97;;;1.83;;
80251;SDS011;69562;37.974;23.708;2023-04-25T13:03:08;2.72;;;2.20;;
80251;SDS011;69562;37.974;23.708;2023-04-25T13:05:36;2.90;;;2.30;;
80251;SDS011;69562;37.974;23.708;2023-04-25T13:08:02;2.95;;;1.88;;
80251;SDS011;69562;37.974;23.708;2023-04-25T13:10:28;4.13;;;2.13;;
80251;SDS011;69562;37.974;23.708;2023-04-25T13:12:53;3.00;;;2.13;;
80251;SDS011;69562;37.974;23.708;2023-04-25T13:15:19;2.70;;;2.07;;
80251;SDS011;69562;37.974;23.708;2023-04-25T13:17:45;2.85;;;1.90;;
80251;SDS011;69562;37.974;23.708;2023-04-25T13:20:11;2.78;;;2.30;;
80251;SDS011;69562;37.974;23.708;2023-04-25T13:22:38;4.72;;;2.50;;
80251;SDS011;69562;37.974;23.708;2023-04-25T13:25:05;2.60;;;2.30;;
80251;SDS011;69562;37.974;23.708;2023-04-25T13:27:32;3.85;;;2.40;;
80251;SDS011;69562;37.974;23.708;2023-04-25T13:29:59;3.65;;;2.50;;
80251;SDS011;69562;37.974;23.708;2023-04-25T13:32:26;2.75;;;2.45;;
80251;SDS011;69562;37.974;23.708;2023-04-25T13:34:52;4.50;;;2.58;;
80251;SDS011;69562;37.974;23.708;2023-04-25T13:37:18;5.18;;;2.40;;
80251;SDS011;69562;37.974;23.708;2023-04-25T13:39:44;6.03;;;2.45;;
80251;SDS011;69562;37.974;23.708;2023-04-25T13:42:09;2.35;;;2.10;;
80251;SDS011;69562;37.974;23.708;2023-04-25T13:44:36;2.40;;;2.10;;
80251;SDS011;69562;37.974;23.708;2023-04-25T13:47:02;2.97;;;2.40;;
80251;SDS011;69562;37.974;23.708;2023-04-25T13:49:28;2.95;;;2.00;;
80251;SDS011;69562;37.974;23.708;2023-04-25T13:51:53;2.87;;;2.37;;
80251;SDS011;69562;37.974;23.708;2023-04-25T13:54:20;2.92;;;2.10;;
80251;SDS011;69562;37.974;23.708;2023-04-25T13:56:45;2.53;;;2.20;;
80251;SDS011;69562;37.974;23.708;2023-04-25T13:59:11;1.90;;;1.77;;
80251;SDS011;69562;37.974;23.708;2023-04-25T14:01:37;2.37;;;2.17;;
80251;SDS011;69562;37.974;23.708;2023-04-25T14:04:03;2.20;;;2.10;;
80251;SDS011;69562;37.974;23.708;2023-04-25T14:06:31;2.08;;;1.90;;
80251;SDS011;69562;37.974;23.708;2023-04-25T14:08:57;2.85;;;2.08;;
80251;SDS011;69562;37.974;23.708;2023-04-25T14:11:26;2.42;;;2.03;;
80251;SDS011;69562;37.974;23.708;2023-04-25T14:13:51;2.58;;;2.10;;
80251;SDS011;69562;37.974;23.708;2023-04-25T14:16:17;2.20;;;2.00;;
80251;SDS011;69562;37.974;23.708;2023-04-25T14:18:43;2.00;;;1.80;;
80251;SDS011;69562;37.974;23.708;2023-04-25T14:21:08;4.17;;;2.00;;
80251;SDS011;69562;37.974;23.708;2023-04-25T14:23:34;3.20;;;2.30;;
80251;SDS011;69562;37.974;23.708;2023-04-25T14:26:03;3.78;;;2.42;;
80251;SDS011;69562;37.974;23.708;2023-04-25T14:28:30;2.42;;;2.10;;
80251;SDS011;69562;37.974;23.708;2023-04-25T14:30:56;3.47;;;2.22;;
80251;SDS011;69562;37.974;23.708;2023-04-25T14:33:21;3.70;;;2.30;;
80251;SDS011;69562;37.974;23.708;2023-04-25T14:35:47;2.40;;;2.20;;
80251;SDS011;69562;37.974;23.708;2023-04-25T14:38:12;3.53;;;2.03;;
80251;SDS011;69562;37.974;23.708;2023-04-25T14:40:39;3.40;;;2.13;;
80251;SDS011;69562;37.974;23.708;2023-04-25T14:43:04;2.83;;;2.30;;
80251;SDS011;69562;37.974;23.708;2023-04-25T14:45:30;2.97;;;2.20;;
80251;SDS011;69562;37.974;23.708;2023-04-25T14:47:56;3.60;;;2.40;;
80251;SDS011;69562;37.974;23.708;2023-04-25T14:50:21;2.80;;;2.20;;
80251;SDS011;69562;37.974;23.708;2023-04-25T14:52:47;2.50;;;2.30;;
80251;SDS011;69562;37.974;23.708;2023-04-25T14:55:13;2.95;;;2.45;;
80251;SDS011;69562;37.974;23.708;2023-04-25T14:57:39;2.70;;;2.30;;
80251;SDS011;69562;37.974;23.708;2023-04-25T15:00:05;2.30;;;2.10;;
80251;SDS011;69562;37.974;23.708;2023-04-25T15:02:34;3.05;;;2.40;;
80251;SDS011;69562;37.974;23.708;2023-04-25T15:05:01;2.85;;;2.15;;
80251;SDS011;69562;37.974;23.708;2023-04-25T15:07:28;2.78;;;2.08;;
80251;SDS011;69562;37.974;23.708;2023-04-25T15:09:54;2.70;;;2.20;;
80251;SDS011;69562;37.974;23.708;2023-04-25T15:12:21;2.53;;;2.33;;
80251;SDS011;69562;37.974;23.708;2023-04-25T15:14:47;2.60;;;2.20;;
80251;SDS011;69562;37.974;23.708;2023-04-25T15:17:13;2.67;;;2.20;;
80251;SDS011;69562;37.974;23.708;2023-04-25T15:19:39;3.70;;;2.58;;
80251;SDS011;69562;37.974;23.708;2023-04-25T15:22:05;3.07;;;2.37;;
80251;SDS011;69562;37.974;23.708;2023-04-25T15:24:31;3.15;;;2.40;;
80251;SDS011;69562;37.974;23.708;2023-04-25T15:26:57;4.13;;;2.58;;
80251;SDS011;69562;37.974;23.708;2023-04-25T15:29:23;2.58;;;2.38;;